sensor_id;sensor_type;location;lat;lon;timestamp;P1;durP1;ratioP1;P2;durP2;ratioP2
41721;SDS011;27407;24.142;-110.310;2024-02-21T00:01:18;45.47;;;3.88;;
41721;SDS011;27407;24.142;-110.310;2024-02-21T00:03:48;14.38;;;2.00;;
41721;SDS011;27407;24.142;-110.310;2024-02-21T00:06:14;31.35;;;3.00;;
41721;SDS011;27407;24.142;-110.310;2024-02-21T00:08:41;97.47;;;7.93;;
41721;SDS011;27407;24.142;-110.310;2024-02-21T00:11:08;7.78;;;0.90;;
41721;SDS011;27407;24.142;-110.310;2024-02-21T00:13:34;56.78;;;4.13;;
41721;SDS011;27407;24.142;-110.310;2024-02-21T00:16:01;77.57;;;7.03;;
41721;SDS011;27407;24.142;-110.310;2024-02-21T00:18:27;23.10;;;1.75;;
41721;SDS011;27407;24.142;-110.310;2024-02-21T00:20:54;18.40;;;1.10;;
41721;SDS011;27407;24.142;-110.310;2024-02-21T00:23:21;49.35;;;4.07;;
41721;SDS011;27407;24.142;-110.310;2024-02-21T00:25:48;16.13;;;1.60;;
41721;SDS011;27407;24.142;-110.310;2024-02-21T00:28:15;16.02;;;1.33;;
41721;SDS011;27407;24.142;-110.310;2024-02-21T00:30:41;58.03;;;5.53;;
41721;SDS011;27407;24.142;-110.310;2024-02-21T00:33:08;21.20;;;1.63;;
41721;SDS011;27407;24.142;-110.310;2024-02-21T00:35:35;6.53;;;1.55;;
41721;SDS011;27407;24.142;-110.310;2024-02-21T00:38:01;16.83;;;1.65;;
41721;SDS011;27407;24.142;-110.310;2024-02-21T00:40:28;22.98;;;2.28;;
41721;SDS011;27407;24.142;-110.310;2024-02-21T00:42:55;115.38;;;8.50;;
41721;SDS011;27407;24.142;-110.310;2024-02-21T00:45:21;18.48;;;1.92;;
41721;SDS011;27407;24.142;-110.310;2024-02-21T00:47:48;39.70;;;4.68;;
41721;SDS011;27407;24.142;-110.310;2024-02-21T00:50:15;68.25;;;5.90;;
41721;SDS011;27407;24.142;-110.310;2024-02-21T00:52:41;23.38;;;2.40;;
41721;SDS011;27407;24.142;-110.310;2024-02-21T00:55:08;32.30;;;2.85;;
41721;SDS011;27407;24.142;-110.310;2024-02-21T00:57:35;46.50;;;4.97;;
41721;SDS011;27407;24.142;-110.310;2024-02-21T01:00:05;30.13;;;2.63;;
41721;SDS011;27407;24.142;-110.310;2024-02-21T01:02:33;21.48;;;1.90;;
41721;SDS011;27407;24.142;-110.310;2024-02-21T01:05:00;30.38;;;3.40;;
41721;SDS011;27407;24.142;-110.310;2024-02-21T01:07:27;185.65;;;12.88;;
41721;SDS011;27407;24.142;-110.310;2024-02-21T01:09:54;25.92;;;3.10;;
41721;SDS011;27407;24.142;-110.310;2024-02-21T01:12:21;32.13;;;3.08;;
41721;SDS011;27407;24.142;-110.310;2024-02-21T01:14:47;54.05;;;4.22;;
41721;SDS011;27407;24.142;-110.310;2024-02-21T01:17:14;101.80;;;6.72;;
41721;SDS011;27407;24.142;-110.310;2024-02-21T01:19:41;27.40;;;2.80;;
41721;SDS011;27407;24.142;-110.310;2024-02-21T01:22:08;69.35;;;6.15;;
41721;SDS011;27407;24.142;-110.310;2024-02-21T01:24:35;60.67;;;4.78;;
41721;SDS011;27407;24.142;-110.310;2024-02-21T01:27:01;58.15;;;4.35;;
41721;SDS011;27407;24.142;-110.310;2024-02-21T01:29:28;80.72;;;7.00;;
41721;SDS011;27407;24.142;-110.310;2024-02-21T01:31:54;25.80;;;2.42;;
41721;SDS011;27407;24.142;-110.310;2024-02-21T01:34:21;37.50;;;3.50;;
41721;SDS011;27407;24.142;-110.310;2024-02-21T01:36:48;53.25;;;5.25;;
41721;SDS011;27407;24.142;-110.310;2024-02-21T01:39:15;25.48;;;2.60;;
41721;SDS011;27407;24.142;-110.310;2024-02-21T01:41:41;27.10;;;2.45;;
41721;SDS011;27407;24.142;-110.310;2024-02-21T01:44:08;40.97;;;2.92;;
41721;SDS011;27407;24.142;-110.310;2024-02-21T01:46:34;19.90;;;2.00;;
41721;SDS011;27407;24.142;-110.310;2024-02-21T01:49:01;47.08;;;4.88;;
41721;SDS011;27407;24.142;-110.310;2024-02-21T01:51:29;15.27;;;2.58;;
41721;SDS011;27407;24.142;-110.310;2024-02-21T01:53:56;28.48;;;3.88;;
41721;SDS011;27407;24.142;-110.310;2024-02-21T01:56:24;35.45;;;4.30;;
41721;SDS011;27407;24.142;-110.310;2024-02-21T01:58:50;36.80;;;4.07;;
41721;SDS011;27407;24.142;-110.310;2024-02-21T02:01:17;29.48;;;3.05;;
41721;SDS011;27407;24.142;-110.310;2024-02-21T02:03:47;77.93;;;8.13;;
41721;SDS011;27407;24.142;-110.310;2024-02-21T02:06:14;22.40;;;3.45;;
41721;SDS011;27407;24.142;-110.310;2024-02-21T02:08:41;30.83;;;2.72;;
41721;SDS011;27407;24.142;-110.310;2024-02-21T02:11:08;20.58;;;2.95;;
41721;SDS011;27407;24.142;-110.310;2024-02-21T02:13:35;46.05;;;4.47;;
41721;SDS011;27407;24.142;-110.310;2024-02-21T02:16:02;23.60;;;2.38;;
41721;SDS011;27407;24.142;-110.310;2024-02-21T02:18:29;17.90;;;2.28;;
41721;SDS011;27407;24.142;-110.310;2024-02-21T02:20:55;16.55;;;2.08;;
41721;SDS011;27407;24.142;-110.310;2024-02-21T02:25:50;9.43;;;1.90;;
41721;SDS011;27407;24.142;-110.310;2024-02-21T02:28:20;33.05;;;3.42;;
41721;SDS011;27407;24.142;-110.310;2024-02-21T02:30:47;28.95;;;2.90;;
41721;SDS011;27407;24.142;-110.310;2024-02-21T02:33:14;15.45;;;2.63;;
41721;SDS011;27407;24.142;-110.310;2024-02-21T02:35:43;30.83;;;2.90;;
41721;SDS011;27407;24.142;-110.310;2024-02-21T02:38:10;23.40;;;2.83;;
41721;SDS011;27407;24.142;-110.310;2024-02-21T02:40:40;29.50;;;2.50;;
41721;SDS011;27407;24.142;-110.310;2024-02-21T02:43:07;31.77;;;2.75;;
41721;SDS011;27407;24.142;-110.310;2024-02-21T02:45:34;37.25;;;2.97;;
41721;SDS011;27407;24.142;-110.310;2024-02-21T02:48:00;39.80;;;3.25;;
41721;SDS011;27407;24.142;-110.310;2024-02-21T02:50:27;70.20;;;4.47;;
41721;SDS011;27407;24.142;-110.310;2024-02-21T02:52:54;37.88;;;3.70;;
41721;SDS011;27407;24.142;-110.310;2024-02-21T02:55:21;40.83;;;3.33;;
41721;SDS011;27407;24.142;-110.310;2024-02-21T02:57:47;34.35;;;3.78;;
41721;SDS011;27407;24.142;-110.310;2024-02-21T03:00:14;13.05;;;2.15;;
41721;SDS011;27407;24.142;-110.310;2024-02-21T03:02:42;35.05;;;2.58;;
41721;SDS011;27407;24.142;-110.310;2024-02-21T03:05:13;31.85;;;2.42;;
41721;SDS011;27407;24.142;-110.310;2024-02-21T03:07:44;13.60;;;2.40;;
41721;SDS011;27407;24.142;-110.310;2024-02-21T03:10:11;19.65;;;2.47;;
41721;SDS011;27407;24.142;-110.310;2024-02-21T03:12:38;136.63;;;8.68;;
41721;SDS011;27407;24.142;-110.310;2024-02-21T03:15:05;19.48;;;2.40;;
41721;SDS011;27407;24.142;-110.310;2024-02-21T03:17:32;18.65;;;2.25;;
41721;SDS011;27407;24.142;-110.310;2024-02-21T03:20:02;19.33;;;2.20;;
41721;SDS011;27407;24.142;-110.310;2024-02-21T03:22:36;26.52;;;2.47;;
41721;SDS011;27407;24.142;-110.310;2024-02-21T03:25:03;12.70;;;1.55;;
41721;SDS011;27407;24.142;-110.310;2024-02-21T03:27:30;34.30;;;2.10;;
41721;SDS011;27407;24.142;-110.310;2024-02-21T03:29:56;22.23;;;1.88;;
41721;SDS011;27407;24.142;-110.310;2024-02-21T03:32:23;8.75;;;1.60;;
41721;SDS011;27407;24.142;-110.310;2024-02-21T03:34:49;7.25;;;1.10;;
41721;SDS011;27407;24.142;-110.310;2024-02-21T03:37:16;9.43;;;1.10;;
41721;SDS011;27407;24.142;-110.310;2024-02-21T03:39:43;11.32;;;2.05;;
41721;SDS011;27407;24.142;-110.310;2024-02-21T03:42:10;17.30;;;1.98;;
41721;SDS011;27407;24.142;-110.310;2024-02-21T03:44:37;12.02;;;1.40;;
41721;SDS011;27407;24.142;-110.310;2024-02-21T03:47:03;24.25;;;2.08;;
41721;SDS011;27407;24.142;-110.310;2024-02-21T03:49:30;19.33;;;2.65;;
41721;SDS011;27407;24.142;-110.310;2024-02-21T03:51:57;36.00;;;4.85;;
41721;SDS011;27407;24.142;-110.310;2024-02-21T03:54:23;8.90;;;1.20;;
41721;SDS011;27407;24.142;-110.310;2024-02-21T03:56:50;8.68;;;1.17;;
41721;SDS011;27407;24.142;-110.310;2024-02-21T03:59:16;8.32;;;1.27;;
41721;SDS011;27407;24.142;-110.310;2024-02-21T04:01:43;11.40;;;1.40;;
41721;SDS011;27407;24.142;-110.310;2024-02-21T04:04:10;18.17;;;1.77;;
41721;SDS011;27407;24.142;-110.310;2024-02-21T04:06:38;27.40;;;2.72;;
41721;SDS011;27407;24.142;-110.310;2024-02-21T04:09:15;60.88;;;4.88;;
41721;SDS011;27407;24.142;-110.310;2024-02-21T04:11:42;52.17;;;4.75;;
41721;SDS011;27407;24.142;-110.310;2024-02-21T04:14:09;56.13;;;3.92;;
41721;SDS011;27407;24.142;-110.310;2024-02-21T04:16:36;27.67;;;3.00;;
41721;SDS011;27407;24.142;-110.310;2024-02-21T04:19:04;28.65;;;3.28;;
41721;SDS011;27407;24.142;-110.310;2024-02-21T04:21:30;20.10;;;2.10;;
41721;SDS011;27407;24.142;-110.310;2024-02-21T04:23:57;46.97;;;3.92;;
41721;SDS011;27407;24.142;-110.310;2024-02-21T04:26:24;41.87;;;4.17;;
41721;SDS011;27407;24.142;-110.310;2024-02-21T04:28:52;41.70;;;3.83;;
41721;SDS011;27407;24.142;-110.310;2024-02-21T04:31:18;44.13;;;4.13;;
41721;SDS011;27407;24.142;-110.310;2024-02-21T04:33:45;15.03;;;1.30;;
41721;SDS011;27407;24.142;-110.310;2024-02-21T04:36:11;15.30;;;1.33;;
41721;SDS011;27407;24.142;-110.310;2024-02-21T04:38:38;20.70;;;1.47;;
41721;SDS011;27407;24.142;-110.310;2024-02-21T04:41:06;6.87;;;1.13;;
41721;SDS011;27407;24.142;-110.310;2024-02-21T04:43:33;15.20;;;1.63;;
41721;SDS011;27407;24.142;-110.310;2024-02-21T04:46:00;23.00;;;2.33;;
41721;SDS011;27407;24.142;-110.310;2024-02-21T04:48:26;9.25;;;1.45;;
41721;SDS011;27407;24.142;-110.310;2024-02-21T04:50:53;15.77;;;2.13;;
41721;SDS011;27407;24.142;-110.310;2024-02-21T04:53:20;15.03;;;1.87;;
41721;SDS011;27407;24.142;-110.310;2024-02-21T04:55:46;20.03;;;2.50;;
41721;SDS011;27407;24.142;-110.310;2024-02-21T04:58:13;26.27;;;4.70;;
41721;SDS011;27407;24.142;-110.310;2024-02-21T05:00:40;33.30;;;4.20;;
41721;SDS011;27407;24.142;-110.310;2024-02-21T05:03:06;34.97;;;3.97;;
41721;SDS011;27407;24.142;-110.310;2024-02-21T05:05:33;32.20;;;4.00;;
41721;SDS011;27407;24.142;-110.310;2024-02-21T05:08:00;59.73;;;5.30;;
41721;SDS011;27407;24.142;-110.310;2024-02-21T05:10:27;98.67;;;7.77;;
41721;SDS011;27407;24.142;-110.310;2024-02-21T05:12:54;31.40;;;3.83;;
41721;SDS011;27407;24.142;-110.310;2024-02-21T05:15:20;23.10;;;4.03;;
41721;SDS011;27407;24.142;-110.310;2024-02-21T05:17:47;26.47;;;3.83;;
41721;SDS011;27407;24.142;-110.310;2024-02-21T05:20:13;25.63;;;2.60;;
41721;SDS011;27407;24.142;-110.310;2024-02-21T05:22:40;16.23;;;1.60;;
41721;SDS011;27407;24.142;-110.310;2024-02-21T05:25:07;15.17;;;1.93;;
41721;SDS011;27407;24.142;-110.310;2024-02-21T05:27:33;21.27;;;2.30;;
41721;SDS011;27407;24.142;-110.310;2024-02-21T05:30:01;16.47;;;1.80;;
41721;SDS011;27407;24.142;-110.310;2024-02-21T05:32:28;13.07;;;1.70;;
41721;SDS011;27407;24.142;-110.310;2024-02-21T05:34:55;15.47;;;1.77;;
41721;SDS011;27407;24.142;-110.310;2024-02-21T05:37:23;16.37;;;2.07;;
41721;SDS011;27407;24.142;-110.310;2024-02-21T05:39:50;23.20;;;2.93;;
41721;SDS011;27407;24.142;-110.310;2024-02-21T05:42:16;20.70;;;2.80;;
41721;SDS011;27407;24.142;-110.310;2024-02-21T05:44:43;18.53;;;2.47;;
41721;SDS011;27407;24.142;-110.310;2024-02-21T05:47:09;8.03;;;1.87;;
41721;SDS011;27407;24.142;-110.310;2024-02-21T05:49:37;13.13;;;2.23;;
41721;SDS011;27407;24.142;-110.310;2024-02-21T05:52:05;24.87;;;2.10;;
41721;SDS011;27407;24.142;-110.310;2024-02-21T05:54:31;23.70;;;2.47;;
41721;SDS011;27407;24.142;-110.310;2024-02-21T05:56:58;11.87;;;1.70;;
41721;SDS011;27407;24.142;-110.310;2024-02-21T05:59:25;11.80;;;2.23;;
41721;SDS011;27407;24.142;-110.310;2024-02-21T06:01:55;13.00;;;1.83;;
41721;SDS011;27407;24.142;-110.310;2024-02-21T06:04:24;8.67;;;1.60;;
41721;SDS011;27407;24.142;-110.310;2024-02-21T06:06:51;9.87;;;1.40;;
41721;SDS011;27407;24.142;-110.310;2024-02-21T06:09:17;11.93;;;1.50;;
41721;SDS011;27407;24.142;-110.310;2024-02-21T06:11:44;8.57;;;1.33;;
41721;SDS011;27407;24.142;-110.310;2024-02-21T06:14:11;10.17;;;1.90;;
41721;SDS011;27407;24.142;-110.310;2024-02-21T06:16:38;7.33;;;1.50;;
41721;SDS011;27407;24.142;-110.310;2024-02-21T06:19:04;10.50;;;1.77;;
41721;SDS011;27407;24.142;-110.310;2024-02-21T06:21:31;10.47;;;1.87;;
41721;SDS011;27407;24.142;-110.310;2024-02-21T06:23:57;26.63;;;1.87;;
41721;SDS011;27407;24.142;-110.310;2024-02-21T06:26:24;10.33;;;1.70;;
41721;SDS011;27407;24.142;-110.310;2024-02-21T06:28:51;14.83;;;2.40;;
41721;SDS011;27407;24.142;-110.310;2024-02-21T06:31:17;16.67;;;2.23;;
41721;SDS011;27407;24.142;-110.310;2024-02-21T06:33:44;13.60;;;1.67;;
41721;SDS011;27407;24.142;-110.310;2024-02-21T06:36:10;16.57;;;2.83;;
41721;SDS011;27407;24.142;-110.310;2024-02-21T06:38:37;16.27;;;2.77;;
41721;SDS011;27407;24.142;-110.310;2024-02-21T06:41:04;21.90;;;2.63;;
41721;SDS011;27407;24.142;-110.310;2024-02-21T06:43:30;15.30;;;2.03;;
41721;SDS011;27407;24.142;-110.310;2024-02-21T06:45:57;8.43;;;1.23;;
41721;SDS011;27407;24.142;-110.310;2024-02-21T06:48:24;14.47;;;1.73;;
41721;SDS011;27407;24.142;-110.310;2024-02-21T06:50:50;13.63;;;1.90;;
41721;SDS011;27407;24.142;-110.310;2024-02-21T06:53:17;6.73;;;1.50;;
41721;SDS011;27407;24.142;-110.310;2024-02-21T06:55:44;15.00;;;2.27;;
41721;SDS011;27407;24.142;-110.310;2024-02-21T06:58:10;8.93;;;1.50;;
41721;SDS011;27407;24.142;-110.310;2024-02-21T07:00:38;10.53;;;1.77;;
41721;SDS011;27407;24.142;-110.310;2024-02-21T07:03:05;11.80;;;2.00;;
41721;SDS011;27407;24.142;-110.310;2024-02-21T07:05:32;12.23;;;1.73;;
41721;SDS011;27407;24.142;-110.310;2024-02-21T07:07:59;11.20;;;1.93;;
41721;SDS011;27407;24.142;-110.310;2024-02-21T07:10:25;20.27;;;2.03;;
41721;SDS011;27407;24.142;-110.310;2024-02-21T07:12:54;20.03;;;2.97;;
41721;SDS011;27407;24.142;-110.310;2024-02-21T07:15:24;18.57;;;2.30;;
41721;SDS011;27407;24.142;-110.310;2024-02-21T07:17:52;11.47;;;2.27;;
41721;SDS011;27407;24.142;-110.310;2024-02-21T07:20:19;12.00;;;2.47;;
41721;SDS011;27407;24.142;-110.310;2024-02-21T07:22:45;24.73;;;2.60;;
41721;SDS011;27407;24.142;-110.310;2024-02-21T07:25:12;11.70;;;2.30;;
41721;SDS011;27407;24.142;-110.310;2024-02-21T07:27:38;15.33;;;2.37;;
41721;SDS011;27407;24.142;-110.310;2024-02-21T07:30:05;13.57;;;2.10;;
41721;SDS011;27407;24.142;-110.310;2024-02-21T07:32:32;18.47;;;2.43;;
41721;SDS011;27407;24.142;-110.310;2024-02-21T07:34:59;15.57;;;2.30;;
41721;SDS011;27407;24.142;-110.310;2024-02-21T07:37:25;19.70;;;2.67;;
41721;SDS011;27407;24.142;-110.310;2024-02-21T07:39:52;13.23;;;2.57;;
41721;SDS011;27407;24.142;-110.310;2024-02-21T07:42:19;16.00;;;2.47;;
41721;SDS011;27407;24.142;-110.310;2024-02-21T07:44:48;10.77;;;2.30;;
41721;SDS011;27407;24.142;-110.310;2024-02-21T07:47:22;13.87;;;2.30;;
41721;SDS011;27407;24.142;-110.310;2024-02-21T07:49:49;11.80;;;2.37;;
41721;SDS011;27407;24.142;-110.310;2024-02-21T07:52:16;18.17;;;2.57;;
41721;SDS011;27407;24.142;-110.310;2024-02-21T07:54:42;17.77;;;2.70;;
41721;SDS011;27407;24.142;-110.310;2024-02-21T07:57:18;17.73;;;2.63;;
41721;SDS011;27407;24.142;-110.310;2024-02-21T07:59:53;7.67;;;1.70;;
41721;SDS011;27407;24.142;-110.310;2024-02-21T08:02:20;13.07;;;2.27;;
41721;SDS011;27407;24.142;-110.310;2024-02-21T08:04:49;13.40;;;1.80;;
41721;SDS011;27407;24.142;-110.310;2024-02-21T08:07:18;8.17;;;2.13;;
41721;SDS011;27407;24.142;-110.310;2024-02-21T08:09:50;12.97;;;1.80;;
41721;SDS011;27407;24.142;-110.310;2024-02-21T08:12:20;7.93;;;1.60;;
41721;SDS011;27407;24.142;-110.310;2024-02-21T08:14:46;11.17;;;2.60;;
41721;SDS011;27407;24.142;-110.310;2024-02-21T08:17:13;5.60;;;1.30;;
41721;SDS011;27407;24.142;-110.310;2024-02-21T08:19:39;14.57;;;2.33;;
41721;SDS011;27407;24.142;-110.310;2024-02-21T08:22:06;11.53;;;2.00;;
41721;SDS011;27407;24.142;-110.310;2024-02-21T08:24:33;15.10;;;2.40;;
41721;SDS011;27407;24.142;-110.310;2024-02-21T08:27:09;7.57;;;2.10;;
41721;SDS011;27407;24.142;-110.310;2024-02-21T08:29:42;14.30;;;2.80;;
41721;SDS011;27407;24.142;-110.310;2024-02-21T08:32:08;9.27;;;1.63;;
41721;SDS011;27407;24.142;-110.310;2024-02-21T08:34:35;17.80;;;2.33;;
41721;SDS011;27407;24.142;-110.310;2024-02-21T08:37:01;11.43;;;1.83;;
41721;SDS011;27407;24.142;-110.310;2024-02-21T08:39:28;11.47;;;2.27;;
41721;SDS011;27407;24.142;-110.310;2024-02-21T08:41:55;11.90;;;1.80;;
41721;SDS011;27407;24.142;-110.310;2024-02-21T08:44:27;9.87;;;1.87;;
41721;SDS011;27407;24.142;-110.310;2024-02-21T08:46:54;10.30;;;1.87;;
41721;SDS011;27407;24.142;-110.310;2024-02-21T08:49:21;8.10;;;1.90;;
41721;SDS011;27407;24.142;-110.310;2024-02-21T08:51:50;14.43;;;1.90;;
41721;SDS011;27407;24.142;-110.310;2024-02-21T08:54:16;13.23;;;2.10;;
41721;SDS011;27407;24.142;-110.310;2024-02-21T08:56:43;11.93;;;2.13;;
41721;SDS011;27407;24.142;-110.310;2024-02-21T08:59:10;11.00;;;2.37;;
41721;SDS011;27407;24.142;-110.310;2024-02-21T09:01:36;12.23;;;1.90;;
41721;SDS011;27407;24.142;-110.310;2024-02-21T09:04:03;6.77;;;1.50;;
41721;SDS011;27407;24.142;-110.310;2024-02-21T09:06:33;11.27;;;1.60;;
41721;SDS011;27407;24.142;-110.310;2024-02-21T09:09:02;12.37;;;2.10;;
41721;SDS011;27407;24.142;-110.310;2024-02-21T09:11:29;13.07;;;2.17;;
41721;SDS011;27407;24.142;-110.310;2024-02-21T09:13:55;8.80;;;1.53;;
41721;SDS011;27407;24.142;-110.310;2024-02-21T09:16:22;6.40;;;1.60;;
41721;SDS011;27407;24.142;-110.310;2024-02-21T09:18:48;16.03;;;1.50;;
41721;SDS011;27407;24.142;-110.310;2024-02-21T09:21:15;6.97;;;1.80;;
41721;SDS011;27407;24.142;-110.310;2024-02-21T09:23:42;10.07;;;1.77;;
41721;SDS011;27407;24.142;-110.310;2024-02-21T09:26:08;5.90;;;1.63;;
41721;SDS011;27407;24.142;-110.310;2024-02-21T09:28:41;6.73;;;1.60;;
41721;SDS011;27407;24.142;-110.310;2024-02-21T09:31:09;9.83;;;1.57;;
41721;SDS011;27407;24.142;-110.310;2024-02-21T09:33:36;5.70;;;1.43;;
41721;SDS011;27407;24.142;-110.310;2024-02-21T09:36:06;7.40;;;1.50;;
41721;SDS011;27407;24.142;-110.310;2024-02-21T09:38:32;13.70;;;1.47;;
41721;SDS011;27407;24.142;-110.310;2024-02-21T09:40:59;7.67;;;1.43;;
41721;SDS011;27407;24.142;-110.310;2024-02-21T09:43:40;10.50;;;1.70;;
41721;SDS011;27407;24.142;-110.310;2024-02-21T09:46:08;7.93;;;1.43;;
41721;SDS011;27407;24.142;-110.310;2024-02-21T09:51:47;7.70;;;1.53;;
41721;SDS011;27407;24.142;-110.310;2024-02-21T09:54:18;9.77;;;1.40;;
41721;SDS011;27407;24.142;-110.310;2024-02-21T09:56:46;4.27;;;0.90;;
41721;SDS011;27407;24.142;-110.310;2024-02-21T09:59:16;16.73;;;1.30;;
41721;SDS011;27407;24.142;-110.310;2024-02-21T10:01:43;7.87;;;1.27;;
41721;SDS011;27407;24.142;-110.310;2024-02-21T10:04:11;16.53;;;1.70;;
41721;SDS011;27407;24.142;-110.310;2024-02-21T10:06:38;7.73;;;1.40;;
41721;SDS011;27407;24.142;-110.310;2024-02-21T10:09:08;4.50;;;1.17;;
41721;SDS011;27407;24.142;-110.310;2024-02-21T10:11:34;5.37;;;1.10;;
41721;SDS011;27407;24.142;-110.310;2024-02-21T10:14:07;15.13;;;1.37;;
41721;SDS011;27407;24.142;-110.310;2024-02-21T10:16:34;4.53;;;0.70;;
41721;SDS011;27407;24.142;-110.310;2024-02-21T10:19:04;8.27;;;1.27;;
41721;SDS011;27407;24.142;-110.310;2024-02-21T10:21:31;5.17;;;1.03;;
41721;SDS011;27407;24.142;-110.310;2024-02-21T10:23:57;6.50;;;1.00;;
41721;SDS011;27407;24.142;-110.310;2024-02-21T10:26:24;5.50;;;1.30;;
41721;SDS011;27407;24.142;-110.310;2024-02-21T10:28:50;5.37;;;1.20;;
41721;SDS011;27407;24.142;-110.310;2024-02-21T10:31:21;7.87;;;1.00;;
41721;SDS011;27407;24.142;-110.310;2024-02-21T10:34:01;1.90;;;0.80;;
41721;SDS011;27407;24.142;-110.310;2024-02-21T10:36:30;5.27;;;1.13;;
41721;SDS011;27407;24.142;-110.310;2024-02-21T10:38:57;6.87;;;1.13;;
41721;SDS011;27407;24.142;-110.310;2024-02-21T10:41:24;3.97;;;1.43;;
41721;SDS011;27407;24.142;-110.310;2024-02-21T10:43:53;5.80;;;0.80;;
41721;SDS011;27407;24.142;-110.310;2024-02-21T10:46:21;6.13;;;1.10;;
41721;SDS011;27407;24.142;-110.310;2024-02-21T10:49:03;13.07;;;1.20;;
41721;SDS011;27407;24.142;-110.310;2024-02-21T10:51:40;8.83;;;1.00;;
41721;SDS011;27407;24.142;-110.310;2024-02-21T10:56:48;4.67;;;1.10;;
41721;SDS011;27407;24.142;-110.310;2024-02-21T10:59:16;4.10;;;0.60;;
41721;SDS011;27407;24.142;-110.310;2024-02-21T11:01:43;1.60;;;0.80;;
41721;SDS011;27407;24.142;-110.310;2024-02-21T11:04:11;3.80;;;0.90;;
41721;SDS011;27407;24.142;-110.310;2024-02-21T11:06:38;4.03;;;0.90;;
41721;SDS011;27407;24.142;-110.310;2024-02-21T11:09:06;3.63;;;0.80;;
41721;SDS011;27407;24.142;-110.310;2024-02-21T11:14:06;4.63;;;1.10;;
41721;SDS011;27407;24.142;-110.310;2024-02-21T11:16:37;2.47;;;0.50;;
41721;SDS011;27407;24.142;-110.310;2024-02-21T11:19:47;2.83;;;0.80;;
41721;SDS011;27407;24.142;-110.310;2024-02-21T11:21:57;7.50;;;0.87;;
41721;SDS011;27407;24.142;-110.310;2024-02-21T11:24:27;3.13;;;0.60;;
41721;SDS011;27407;24.142;-110.310;2024-02-21T11:27:16;2.63;;;0.60;;
41721;SDS011;27407;24.142;-110.310;2024-02-21T11:29:54;8.77;;;1.17;;
41721;SDS011;27407;24.142;-110.310;2024-02-21T11:32:22;3.87;;;0.80;;
41721;SDS011;27407;24.142;-110.310;2024-02-21T11:34:58;4.33;;;0.70;;
41721;SDS011;27407;24.142;-110.310;2024-02-21T11:37:32;3.07;;;0.40;;
41721;SDS011;27407;24.142;-110.310;2024-02-21T11:40:02;2.50;;;0.77;;
41721;SDS011;27407;24.142;-110.310;2024-02-21T11:42:29;6.70;;;0.60;;
41721;SDS011;27407;24.142;-110.310;2024-02-21T11:44:56;5.43;;;0.70;;
41721;SDS011;27407;24.142;-110.310;2024-02-21T11:47:23;4.43;;;0.77;;
41721;SDS011;27407;24.142;-110.310;2024-02-21T11:49:50;8.53;;;1.17;;
41721;SDS011;27407;24.142;-110.310;2024-02-21T11:52:24;10.37;;;1.73;;
41721;SDS011;27407;24.142;-110.310;2024-02-21T11:54:51;14.47;;;1.83;;
41721;SDS011;27407;24.142;-110.310;2024-02-21T11:57:19;6.20;;;1.40;;
41721;SDS011;27407;24.142;-110.310;2024-02-21T11:59:46;4.37;;;1.20;;
41721;SDS011;27407;24.142;-110.310;2024-02-21T12:02:15;60.03;;;5.53;;
41721;SDS011;27407;24.142;-110.310;2024-02-21T12:04:43;21.03;;;3.70;;
41721;SDS011;27407;24.142;-110.310;2024-02-21T12:07:10;31.93;;;6.87;;
41721;SDS011;27407;24.142;-110.310;2024-02-21T12:09:36;35.47;;;6.27;;
41721;SDS011;27407;24.142;-110.310;2024-02-21T12:12:06;39.57;;;7.27;;
41721;SDS011;27407;24.142;-110.310;2024-02-21T12:14:36;33.37;;;7.47;;
41721;SDS011;27407;24.142;-110.310;2024-02-21T12:17:03;37.63;;;7.40;;
41721;SDS011;27407;24.142;-110.310;2024-02-21T12:19:30;54.23;;;8.87;;
41721;SDS011;27407;24.142;-110.310;2024-02-21T12:21:59;49.63;;;10.43;;
41721;SDS011;27407;24.142;-110.310;2024-02-21T12:24:26;36.20;;;7.90;;
41721;SDS011;27407;24.142;-110.310;2024-02-21T12:26:54;26.93;;;6.03;;
41721;SDS011;27407;24.142;-110.310;2024-02-21T12:29:25;25.47;;;4.70;;
41721;SDS011;27407;24.142;-110.310;2024-02-21T12:31:52;27.13;;;5.37;;
41721;SDS011;27407;24.142;-110.310;2024-02-21T12:34:21;21.90;;;4.13;;
41721;SDS011;27407;24.142;-110.310;2024-02-21T12:36:49;21.43;;;2.93;;
41721;SDS011;27407;24.142;-110.310;2024-02-21T12:39:17;21.90;;;2.60;;
41721;SDS011;27407;24.142;-110.310;2024-02-21T12:41:43;8.00;;;1.50;;
41721;SDS011;27407;24.142;-110.310;2024-02-21T12:44:10;3.97;;;0.70;;
41721;SDS011;27407;24.142;-110.310;2024-02-21T12:46:37;5.65;;;0.57;;
41721;SDS011;27407;24.142;-110.310;2024-02-21T12:49:07;3.55;;;0.70;;
41721;SDS011;27407;24.142;-110.310;2024-02-21T12:51:34;5.75;;;0.60;;
41721;SDS011;27407;24.142;-110.310;2024-02-21T12:54:01;4.05;;;0.60;;
41721;SDS011;27407;24.142;-110.310;2024-02-21T12:56:31;5.10;;;0.80;;
41721;SDS011;27407;24.142;-110.310;2024-02-21T12:58:57;7.70;;;1.05;;
41721;SDS011;27407;24.142;-110.310;2024-02-21T13:01:24;6.25;;;0.95;;
41721;SDS011;27407;24.142;-110.310;2024-02-21T13:03:51;8.77;;;0.93;;
41721;SDS011;27407;24.142;-110.310;2024-02-21T13:06:19;8.65;;;1.00;;
41721;SDS011;27407;24.142;-110.310;2024-02-21T13:08:46;10.20;;;1.05;;
41721;SDS011;27407;24.142;-110.310;2024-02-21T13:11:12;4.00;;;0.80;;
41721;SDS011;27407;24.142;-110.310;2024-02-21T13:13:39;8.35;;;1.00;;
41721;SDS011;27407;24.142;-110.310;2024-02-21T13:16:06;8.30;;;1.50;;
41721;SDS011;27407;24.142;-110.310;2024-02-21T13:18:34;6.47;;;0.90;;
41721;SDS011;27407;24.142;-110.310;2024-02-21T13:21:04;84.43;;;6.65;;
41721;SDS011;27407;24.142;-110.310;2024-02-21T13:23:31;57.73;;;4.93;;
41721;SDS011;27407;24.142;-110.310;2024-02-21T13:25:58;57.53;;;8.85;;
41721;SDS011;27407;24.142;-110.310;2024-02-21T13:28:25;42.88;;;5.72;;
41721;SDS011;27407;24.142;-110.310;2024-02-21T13:30:52;75.93;;;7.10;;
41721;SDS011;27407;24.142;-110.310;2024-02-21T13:33:19;89.25;;;9.43;;
41721;SDS011;27407;24.142;-110.310;2024-02-21T13:35:46;93.32;;;9.27;;
41721;SDS011;27407;24.142;-110.310;2024-02-21T13:38:12;82.57;;;8.63;;
41721;SDS011;27407;24.142;-110.310;2024-02-21T13:40:40;94.63;;;10.13;;
41721;SDS011;27407;24.142;-110.310;2024-02-21T13:43:10;69.80;;;9.80;;
41721;SDS011;27407;24.142;-110.310;2024-02-21T13:45:37;84.27;;;9.97;;
41721;SDS011;27407;24.142;-110.310;2024-02-21T13:48:19;159.10;;;14.82;;
41721;SDS011;27407;24.142;-110.310;2024-02-21T13:50:45;82.30;;;9.30;;
41721;SDS011;27407;24.142;-110.310;2024-02-21T13:53:12;67.65;;;8.88;;
41721;SDS011;27407;24.142;-110.310;2024-02-21T13:55:38;85.75;;;10.20;;
41721;SDS011;27407;24.142;-110.310;2024-02-21T13:58:06;93.90;;;11.50;;
41721;SDS011;27407;24.142;-110.310;2024-02-21T14:00:34;103.85;;;11.48;;
41721;SDS011;27407;24.142;-110.310;2024-02-21T14:03:01;98.15;;;12.10;;
41721;SDS011;27407;24.142;-110.310;2024-02-21T14:05:28;246.75;;;19.98;;
41721;SDS011;27407;24.142;-110.310;2024-02-21T14:07:55;241.20;;;20.08;;
41721;SDS011;27407;24.142;-110.310;2024-02-21T14:10:22;256.15;;;19.05;;
41721;SDS011;27407;24.142;-110.310;2024-02-21T14:12:49;244.40;;;18.97;;